createdAt,value
2018-03-18T00:01:39.804Z,102054.77
2018-03-18T00:04:44.969Z,102054.89
2018-03-18T00:07:52.512Z,102045.80
2018-03-18T00:10:58.410Z,102055.83
2018-03-18T00:14:05.626Z,102059.98
2018-03-18T00:17:13.283Z,102058.42
2018-03-18T00:20:20.148Z,102075.04
2018-03-18T00:23:28.843Z,102065.70
2018-03-18T00:26:36.613Z,102054.88
2018-03-18T00:29:44.117Z,102063.04
2018-03-18T00:32:51.910Z,102064.37
2018-03-18T00:35:59.262Z,102061.00
2018-03-18T00:39:05.811Z,102088.84
2018-03-18T00:42:11.860Z,102066.02
2018-03-18T00:45:17.353Z,102065.86
2018-03-18T00:48:22.861Z,102058.33
2018-03-18T00:51:49.286Z,102067.16
2018-03-18T00:54:55.408Z,102072.61
2018-03-18T00:58:04.617Z,102061.11
2018-03-18T01:01:13.878Z,102066.45
2018-03-18T01:04:23.139Z,102054.97
2018-03-18T01:07:29.829Z,102064.84
2018-03-18T01:10:35.172Z,102066.97
2018-03-18T01:13:40.569Z,102061.12
2018-03-18T01:16:46.580Z,102072.25
2018-03-18T01:19:55.725Z,102058.75
2018-03-18T01:23:00.779Z,102056.91
2018-03-18T01:26:05.645Z,102045.52
2018-03-18T01:29:09.140Z,102053.04
2018-03-18T01:32:14.624Z,102043.94
2018-03-18T01:35:21.213Z,102038.05
2018-03-18T01:38:32.141Z,102043.83
2018-03-18T01:41:38.957Z,102051.11
2018-03-18T01:44:44.893Z,102043.63
2018-03-18T01:47:50.072Z,102040.72
2018-03-18T01:50:56.537Z,102041.29
2018-03-18T01:54:04.834Z,102031.56
2018-03-18T01:57:08.931Z,102013.59
2018-03-18T02:00:13.320Z,102044.78
2018-03-18T02:03:18.967Z,102026.31
2018-03-18T02:06:24.865Z,102021.45
2018-03-18T02:09:29.015Z,102022.61
2018-03-18T02:12:33.407Z,102010.22
2018-03-18T02:15:37.520Z,102018.66
2018-03-18T02:18:41.981Z,102023.95
2018-03-18T02:21:48.116Z,102012.05
2018-03-18T02:24:53.304Z,102020.36
2018-03-18T02:27:57.740Z,102019.64
2018-03-18T02:31:01.468Z,102023.77
2018-03-18T02:34:06.864Z,102007.10
2018-03-18T02:37:12.702Z,102019.94
2018-03-18T02:40:21.073Z,102014.59
2018-03-18T02:43:29.051Z,102011.50
2018-03-18T02:46:34.371Z,102018.25
2018-03-18T02:49:37.854Z,102026.87
2018-03-18T02:52:42.494Z,102007.33
2018-03-18T02:55:49.198Z,102019.99
2018-03-18T02:58:54.006Z,102026.13
2018-03-18T03:02:00.617Z,102013.82
2018-03-18T03:05:06.494Z,102019.49
2018-03-18T03:08:10.810Z,102020.22
2018-03-18T03:11:17.540Z,102012.38
2018-03-18T03:14:23.549Z,102017.13
2018-03-18T03:17:31.484Z,102025.56
2018-03-18T03:20:37.519Z,102016.43
2018-03-18T03:23:43.807Z,102021.80
2018-03-18T03:26:48.419Z,102037.99
2018-03-18T03:29:54.894Z,102032.23
2018-03-18T03:33:02.658Z,102019.02
2018-03-18T03:36:06.615Z,102027.77
2018-03-18T03:39:11.852Z,102015.09
2018-03-18T03:42:17.081Z,102039.95
2018-03-18T03:45:22.604Z,102016.31
2018-03-18T03:48:28.270Z,102023.95
2018-03-18T03:51:34.077Z,102042.26
2018-03-18T03:54:40.441Z,102023.86
2018-03-18T03:57:46.576Z,102035.78
2018-03-18T04:00:54.624Z,102028.38
2018-03-18T04:04:03.578Z,102035.73
2018-03-18T04:07:10.514Z,102033.55
2018-03-18T04:10:15.900Z,102041.00
2018-03-18T04:13:25.117Z,102048.50
2018-03-18T04:16:32.360Z,102044.34
2018-03-18T04:19:37.026Z,102045.80
2018-03-18T04:22:41.937Z,102037.09
2018-03-18T04:25:45.566Z,102038.70
2018-03-18T04:28:50.959Z,102054.94
2018-03-18T04:31:56.586Z,102050.81
2018-03-18T04:35:01.736Z,102046.34
2018-03-18T04:38:06.796Z,102033.37
2018-03-18T04:44:25.520Z,102054.15
2018-03-18T04:47:31.674Z,102049.95
2018-03-18T04:50:37.150Z,102050.34
2018-03-18T04:53:42.244Z,102052.22
2018-03-18T04:56:48.311Z,102060.97
2018-03-18T05:03:04.033Z,102061.71
2018-03-18T05:06:11.516Z,102070.95
2018-03-18T05:09:17.657Z,102073.08
2018-03-18T05:12:22.092Z,102053.41
2018-03-18T05:15:30.645Z,102081.15
2018-03-18T05:18:34.318Z,102077.97
2018-03-18T05:21:42.552Z,102086.00
2018-03-18T05:29:32.214Z,102083.76
2018-03-18T05:32:36.493Z,102098.48
2018-03-18T05:35:41.449Z,102096.09
2018-03-18T05:38:55.920Z,102097.97
2018-03-18T05:42:11.035Z,102092.83
2018-03-18T05:45:15.155Z,102100.66
2018-03-18T05:48:21.283Z,102102.89
2018-03-18T05:51:29.510Z,102102.53
2018-03-18T05:54:36.050Z,102106.53
2018-03-18T05:57:39.750Z,102119.17
2018-03-18T06:00:51.254Z,102126.27
2018-03-18T06:04:01.812Z,102121.20
2018-03-18T06:07:14.736Z,102115.80
2018-03-18T06:10:20.807Z,102138.16
2018-03-18T06:13:29.344Z,102134.45
2018-03-18T06:16:33.415Z,102138.17
2018-03-18T06:19:40.540Z,102161.02
2018-03-18T06:22:47.383Z,102141.80
2018-03-18T06:25:54.153Z,102142.58
2018-03-18T06:28:59.365Z,102153.81
2018-03-18T06:32:04.003Z,102151.47
2018-03-18T06:35:14.120Z,102159.48
2018-03-18T06:38:21.691Z,102151.20
2018-03-18T06:41:30.222Z,102152.75
2018-03-18T06:44:36.952Z,102149.55
2018-03-18T06:47:41.214Z,102154.61
2018-03-18T06:50:46.736Z,102148.61
2018-03-18T06:53:50.762Z,102151.59
2018-03-18T06:56:58.043Z,102158.61
2018-03-18T07:00:02.197Z,102160.33
2018-03-18T07:03:07.397Z,102157.91
2018-03-18T07:06:15.230Z,102170.86
2018-03-18T07:09:26.735Z,102164.98
2018-03-18T07:49:53.492Z,102192.06
2018-03-18T08:00:20.371Z,102188.89
2018-03-18T08:03:25.428Z,102197.36
2018-03-18T08:24:39.511Z,102211.83
2018-03-18T08:31:39.776Z,102213.11
2018-03-18T08:35:07.412Z,102210.89
2018-03-18T08:38:15.647Z,102201.92
2018-03-18T08:41:19.911Z,102203.50
2018-03-18T08:44:42.644Z,102205.91
2018-03-18T08:51:31.592Z,102209.45
2018-03-18T08:58:48.022Z,102212.66
2018-03-18T09:09:23.758Z,102211.21
2018-03-18T09:12:27.055Z,102223.67
2018-03-18T09:15:30.371Z,102227.61
2018-03-18T09:18:33.693Z,102235.43
2018-03-18T09:21:37.015Z,102211.27
2018-03-18T09:24:40.338Z,102216.00
2018-03-18T09:27:43.642Z,102216.34
2018-03-18T09:30:46.980Z,102210.50
2018-03-18T09:33:50.275Z,102220.95
2018-03-18T09:36:53.586Z,102220.02
2018-03-18T09:39:56.882Z,102214.73
2018-03-18T09:43:00.205Z,102215.30
2018-03-18T09:46:03.503Z,102208.77
2018-03-18T09:49:06.835Z,102210.06
2018-03-18T09:52:10.901Z,102207.00
2018-03-18T09:55:14.238Z,102186.27
2018-03-18T09:58:17.530Z,102186.48
2018-03-18T10:01:20.858Z,102199.61
2018-03-18T10:04:24.162Z,102197.50
2018-03-18T10:07:27.467Z,102194.09
2018-03-18T10:10:30.787Z,102194.35
2018-03-18T10:13:34.078Z,102190.36
2018-03-18T10:16:37.391Z,102197.47
2018-03-18T10:19:40.714Z,102211.31
2018-03-18T10:22:44.780Z,102213.50
2018-03-18T10:25:48.115Z,102217.77
2018-03-18T10:28:51.416Z,102195.67
2018-03-18T10:31:54.735Z,102212.40
2018-03-18T10:34:58.806Z,102209.16
2018-03-18T10:38:02.131Z,102217.19
2018-03-18T10:41:06.207Z,102194.67
2018-03-18T10:44:09.515Z,102197.84
2018-03-18T10:47:12.854Z,102208.25
2018-03-18T10:50:16.900Z,102199.53
2018-03-18T10:53:20.222Z,102203.29
2018-03-18T10:56:23.523Z,102206.14
2018-03-18T10:59:26.836Z,102193.10
2018-03-18T11:02:30.155Z,102197.38
2018-03-18T11:05:33.486Z,102187.41
2018-03-18T11:08:37.291Z,102194.09
2018-03-18T11:11:40.602Z,102187.05
2018-03-18T12:16:08.213Z,102151.80
2018-03-18T12:22:47.384Z,102142.39
2018-03-18T12:26:13.073Z,102142.98
2018-03-18T12:29:38.228Z,102155.14
2018-03-18T12:33:10.005Z,102146.14
2018-03-18T12:36:23.972Z,102134.28
2018-03-18T12:39:45.420Z,102110.73
2018-03-18T12:43:06.406Z,102124.42
2018-03-18T12:46:09.699Z,102119.86
2018-03-18T12:49:13.001Z,102135.72
2018-03-18T12:52:16.290Z,102118.34
2018-03-18T12:55:19.620Z,102108.92
2018-03-18T12:58:22.914Z,102122.34
2018-03-18T13:01:45.411Z,102119.48
2018-03-18T13:04:48.866Z,102111.42
2018-03-18T13:25:41.715Z,102107.39
2018-03-18T13:28:45.775Z,102101.73
2018-03-18T13:31:49.086Z,102100.31
2018-03-18T13:34:53.146Z,102092.95
2018-03-18T13:37:56.458Z,102101.02
2018-03-18T13:40:59.746Z,102086.79
2018-03-18T13:44:03.055Z,102084.59
2018-03-18T13:47:06.372Z,102089.00
2018-03-18T13:50:09.662Z,102083.02
2018-03-18T13:53:12.969Z,102087.92
2018-03-18T13:56:16.259Z,102083.86
2018-03-18T13:59:19.566Z,102079.91
2018-03-18T14:02:22.898Z,102082.39
2018-03-18T14:05:26.958Z,102079.48
2018-03-18T14:08:30.270Z,102066.06
2018-03-18T14:11:33.559Z,102065.73
2018-03-18T14:14:36.872Z,102062.84
2018-03-18T14:17:40.174Z,102055.45
2018-03-18T14:20:43.495Z,102048.77
2018-03-18T14:23:47.558Z,102052.41
2018-03-18T14:26:50.871Z,102044.44
2018-03-18T14:29:54.163Z,102055.77
2018-03-18T14:32:57.475Z,102059.22
2018-03-18T14:36:00.810Z,102044.61
2018-03-18T14:39:04.168Z,102045.69
2018-03-18T14:42:07.539Z,102042.30
2018-03-18T14:45:11.703Z,102045.47
2018-03-18T14:48:16.756Z,102023.09
2018-03-18T14:51:20.096Z,102045.59
2018-03-18T14:54:24.623Z,102037.98
2018-03-18T14:57:28.816Z,102029.75
2018-03-18T15:00:32.199Z,102027.41
2018-03-18T15:07:20.287Z,102037.28
2018-03-18T15:10:23.612Z,102026.49
2018-03-18T15:13:26.930Z,102026.68
2018-03-18T15:16:31.013Z,102037.33
2018-03-18T15:19:34.326Z,102039.36
2018-03-18T15:22:38.360Z,102024.64
2018-03-18T15:25:42.448Z,102021.77
2018-03-18T15:28:45.839Z,102016.22
2018-03-18T15:31:49.161Z,102011.26
2018-03-18T15:34:53.226Z,102008.11
2018-03-18T15:37:56.532Z,102005.27
2018-03-18T15:41:00.641Z,102008.83
2018-03-18T15:44:04.679Z,102017.94
2018-03-18T15:47:09.023Z,102017.63
2018-03-18T15:50:13.103Z,102008.81
2018-03-18T15:53:16.427Z,102009.78
2018-03-18T15:56:19.727Z,101998.50
2018-03-18T15:59:23.810Z,101995.93
2018-03-18T16:02:27.102Z,102000.23
2018-03-18T16:05:30.410Z,101991.67
2018-03-18T16:08:33.714Z,101991.22
2018-03-18T16:11:37.022Z,101990.58
2018-03-18T16:14:44.386Z,101996.80
2018-03-18T16:17:48.876Z,101999.37
2018-03-18T16:20:52.896Z,101991.50
2018-03-18T16:23:57.318Z,101986.42
2018-03-18T16:27:00.705Z,101991.52
2018-03-18T16:30:21.775Z,101995.33
2018-03-18T16:33:26.482Z,101984.48
2018-03-18T16:36:29.980Z,101984.08
2018-03-18T16:39:33.363Z,101985.80
2018-03-18T16:42:36.664Z,101989.57
2018-03-18T16:45:39.971Z,101994.75
2018-03-18T16:48:43.283Z,101983.75
2018-03-18T16:51:46.602Z,101997.30
2018-03-18T16:54:50.661Z,101993.23
2018-03-18T16:57:53.974Z,101989.69
2018-03-18T17:00:57.266Z,101993.63
2018-03-18T17:04:00.574Z,101997.77
2018-03-18T17:07:03.867Z,101998.81
2018-03-18T17:10:07.178Z,101994.31
2018-03-18T17:13:10.471Z,101991.93
2018-03-18T17:16:13.778Z,101993.05
2018-03-18T17:19:17.072Z,102001.22
2018-03-18T17:22:20.404Z,102001.12
2018-03-18T17:25:23.703Z,101991.91
2018-03-18T17:28:27.027Z,102002.22
2018-03-18T17:31:30.335Z,101990.63
2018-03-18T17:34:33.628Z,102000.89
2018-03-18T17:37:36.943Z,101991.58
2018-03-18T17:40:40.240Z,101999.78
2018-03-18T17:43:43.557Z,101997.36
2018-03-18T17:47:05.323Z,102004.44
2018-03-18T17:54:06.840Z,102017.94
2018-03-18T17:57:11.365Z,102012.67
2018-03-18T18:00:14.705Z,102018.36
2018-03-18T18:03:18.000Z,102015.81
2018-03-18T18:06:21.319Z,102020.00
2018-03-18T18:09:24.615Z,102023.05
2018-03-18T18:12:27.935Z,102024.83
2018-03-18T18:15:31.234Z,102027.41
2018-03-18T18:18:34.547Z,102032.41
2018-03-18T18:21:37.868Z,102022.54
2018-03-18T18:24:41.942Z,102028.80
2018-03-18T18:27:45.258Z,102023.32
2018-03-18T18:30:48.555Z,102027.70
2018-03-18T18:33:51.956Z,102018.53
2018-03-18T18:36:55.279Z,102027.54
2018-03-18T18:39:58.578Z,102034.19
2018-03-18T18:43:01.890Z,102042.16
2018-03-18T18:46:05.195Z,102041.16
2018-03-18T18:49:08.523Z,102043.58
2018-03-18T18:52:11.822Z,102046.29
2018-03-18T18:55:15.146Z,102045.94
2018-03-18T18:58:19.216Z,102048.44
2018-03-18T19:01:22.534Z,102048.19
2018-03-18T19:04:25.848Z,102054.91
2018-03-18T19:07:29.939Z,102051.23
2018-03-18T19:10:33.240Z,102056.38
2018-03-18T19:13:36.569Z,102058.45
2018-03-18T19:16:39.879Z,102054.09
2018-03-18T19:19:43.205Z,102058.13
2018-03-18T19:22:46.523Z,102062.66
2018-03-18T19:25:49.822Z,102062.31
2018-03-18T19:28:53.131Z,102060.49
2018-03-18T19:31:56.447Z,102064.50
2018-03-18T19:34:59.766Z,102074.83
2018-03-18T19:38:03.063Z,102072.97
2018-03-18T19:41:06.379Z,102069.13
2018-03-18T19:44:09.700Z,102060.26
2018-03-18T19:47:13.011Z,102074.55
2018-03-18T19:50:16.331Z,102071.70
2018-03-18T19:53:19.635Z,102074.20
2018-03-18T19:56:22.962Z,102075.10
2018-03-18T19:59:26.275Z,102069.77
2018-03-18T20:02:29.593Z,102077.95
2018-03-18T20:05:32.895Z,102069.03
2018-03-18T20:08:36.992Z,102074.37
2018-03-18T20:11:40.316Z,102075.02
2018-03-18T20:14:44.387Z,102074.67
2018-03-18T20:17:47.706Z,102074.45
2018-03-18T20:20:51.007Z,102075.40
2018-03-18T20:23:54.350Z,102078.09
2018-03-18T20:26:57.671Z,102079.67
2018-03-18T20:30:00.995Z,102077.61
2018-03-18T20:33:04.311Z,102083.44
2018-03-18T20:36:08.414Z,102088.41
2018-03-18T20:39:12.495Z,102079.84
2018-03-18T20:42:15.818Z,102080.75
2018-03-18T20:45:19.147Z,102080.22
2018-03-18T20:48:22.479Z,102076.33
2018-03-18T20:51:26.554Z,102080.16
2018-03-18T20:54:29.874Z,102080.48
2018-03-18T20:57:33.198Z,102080.36
2018-03-18T21:00:36.616Z,102080.23
2018-03-18T21:03:39.935Z,102077.94
2018-03-18T21:06:43.272Z,102078.83
2018-03-18T21:09:46.571Z,102079.56
2018-03-18T21:12:49.895Z,102075.25
2018-03-18T21:15:53.228Z,102078.78
2018-03-18T21:18:56.534Z,102074.22
2018-03-18T21:21:59.868Z,102077.75
2018-03-18T21:25:03.183Z,102075.25
2018-03-18T21:28:06.507Z,102072.27
2018-03-18T21:31:09.812Z,102074.48
2018-03-18T21:34:13.131Z,102071.73
2018-03-18T21:37:16.434Z,102072.84
2018-03-18T21:40:20.526Z,102072.29
2018-03-18T21:43:23.830Z,102068.45
2018-03-18T21:46:27.148Z,102065.59
2018-03-18T21:49:30.479Z,102069.49
2018-03-18T21:52:34.570Z,102064.03
2018-03-18T21:55:38.658Z,102071.91
2018-03-18T21:58:41.963Z,102064.75
2018-03-18T22:01:46.054Z,102063.43
2018-03-18T22:04:49.364Z,102069.95
2018-03-18T22:07:52.688Z,102075.44
2018-03-18T22:10:56.003Z,102069.55
2018-03-18T22:13:59.331Z,102065.13
2018-03-18T22:17:02.633Z,102067.96
2018-03-18T22:20:05.955Z,102070.16
2018-03-18T22:23:09.279Z,102068.63
2018-03-18T22:26:12.588Z,102073.19
2018-03-18T22:29:15.911Z,102070.25
2018-03-18T22:32:19.211Z,102066.52
2018-03-18T22:35:22.539Z,102058.67
2018-03-18T22:38:25.835Z,102066.67
2018-03-18T22:41:29.147Z,102069.16
2018-03-18T22:44:32.462Z,102072.19
2018-03-18T22:47:35.822Z,102071.83
2018-03-18T22:50:39.155Z,102071.70
2018-03-18T22:53:42.454Z,102072.21
2018-03-18T22:56:45.780Z,102070.73
2018-03-18T22:59:49.080Z,102074.42
2018-03-18T23:02:52.402Z,102071.95
2018-03-18T23:05:55.715Z,102071.48
2018-03-18T23:08:59.024Z,102072.07
2018-03-18T23:12:02.352Z,102072.62
2018-03-18T23:15:06.434Z,102068.91
2018-03-18T23:18:09.758Z,102066.36
2018-03-18T23:21:13.843Z,102064.05
2018-03-18T23:24:17.158Z,102065.30
2018-03-18T23:27:20.476Z,102062.33
2018-03-18T23:30:23.782Z,102066.41
2018-03-18T23:33:27.106Z,102064.64
2018-03-18T23:36:30.411Z,102064.45
2018-03-18T23:39:33.730Z,102061.97
2018-03-18T23:42:37.069Z,102064.95
2018-03-18T23:45:41.138Z,102061.27
2018-03-18T23:48:44.464Z,102049.06
2018-03-18T23:51:48.555Z,102057.06
2018-03-18T23:54:51.859Z,102057.50
2018-03-18T23:57:55.182Z,102051.90
